sensor_id;sensor_type;location;lat;lon;timestamp;P1;durP1;ratioP1;P2;durP2;ratioP2
60700;SDS011;46541;49.894;10.886;2024-01-15T00:00:16;63.47;;;22.83;;
60700;SDS011;46541;49.894;10.886;2024-01-15T00:02:43;66.93;;;25.00;;
60700;SDS011;46541;49.894;10.886;2024-01-15T00:05:10;67.40;;;24.08;;
60700;SDS011;46541;49.894;10.886;2024-01-15T00:07:37;66.97;;;23.90;;
60700;SDS011;46541;49.894;10.886;2024-01-15T00:10:04;64.47;;;23.67;;
60700;SDS011;46541;49.894;10.886;2024-01-15T00:12:31;66.25;;;22.65;;
60700;SDS011;46541;49.894;10.886;2024-01-15T00:14:57;62.38;;;22.55;;
60700;SDS011;46541;49.894;10.886;2024-01-15T00:17:24;74.53;;;25.85;;
60700;SDS011;46541;49.894;10.886;2024-01-15T00:19:51;70.53;;;25.35;;
60700;SDS011;46541;49.894;10.886;2024-01-15T00:22:18;71.00;;;25.13;;
60700;SDS011;46541;49.894;10.886;2024-01-15T00:24:46;64.35;;;23.52;;
60700;SDS011;46541;49.894;10.886;2024-01-15T00:27:13;70.30;;;25.15;;
60700;SDS011;46541;49.894;10.886;2024-01-15T00:29:39;64.72;;;24.67;;
60700;SDS011;46541;49.894;10.886;2024-01-15T00:32:06;76.22;;;25.13;;
60700;SDS011;46541;49.894;10.886;2024-01-15T00:34:33;69.28;;;23.90;;
60700;SDS011;46541;49.894;10.886;2024-01-15T00:37:00;70.15;;;25.02;;
60700;SDS011;46541;49.894;10.886;2024-01-15T00:39:26;71.57;;;25.27;;
60700;SDS011;46541;49.894;10.886;2024-01-15T00:41:53;66.30;;;23.60;;
60700;SDS011;46541;49.894;10.886;2024-01-15T00:44:20;65.70;;;23.85;;
60700;SDS011;46541;49.894;10.886;2024-01-15T00:46:47;67.90;;;23.05;;
60700;SDS011;46541;49.894;10.886;2024-01-15T00:49:14;61.95;;;20.63;;
60700;SDS011;46541;49.894;10.886;2024-01-15T00:51:41;67.03;;;20.20;;
60700;SDS011;46541;49.894;10.886;2024-01-15T00:54:08;64.13;;;22.50;;
60700;SDS011;46541;49.894;10.886;2024-01-15T00:56:35;70.70;;;21.35;;
60700;SDS011;46541;49.894;10.886;2024-01-15T00:59:02;59.50;;;20.75;;
60700;SDS011;46541;49.894;10.886;2024-01-15T01:01:29;69.13;;;22.52;;
60700;SDS011;46541;49.894;10.886;2024-01-15T01:03:56;65.13;;;23.20;;
60700;SDS011;46541;49.894;10.886;2024-01-15T01:06:23;70.50;;;24.95;;
60700;SDS011;46541;49.894;10.886;2024-01-15T01:08:51;63.80;;;23.00;;
60700;SDS011;46541;49.894;10.886;2024-01-15T01:11:18;64.47;;;22.52;;
60700;SDS011;46541;49.894;10.886;2024-01-15T01:13:44;68.43;;;23.42;;
60700;SDS011;46541;49.894;10.886;2024-01-15T01:16:11;67.15;;;23.00;;
60700;SDS011;46541;49.894;10.886;2024-01-15T01:18:38;71.05;;;22.92;;
60700;SDS011;46541;49.894;10.886;2024-01-15T01:21:05;65.63;;;23.80;;
60700;SDS011;46541;49.894;10.886;2024-01-15T01:23:32;62.10;;;21.90;;
60700;SDS011;46541;49.894;10.886;2024-01-15T01:25:58;55.67;;;20.85;;
60700;SDS011;46541;49.894;10.886;2024-01-15T01:28:25;58.85;;;20.65;;
60700;SDS011;46541;49.894;10.886;2024-01-15T01:30:52;60.10;;;21.50;;
60700;SDS011;46541;49.894;10.886;2024-01-15T01:33:19;65.68;;;23.63;;
60700;SDS011;46541;49.894;10.886;2024-01-15T01:35:46;64.75;;;22.60;;
60700;SDS011;46541;49.894;10.886;2024-01-15T01:38:13;61.25;;;21.60;;
60700;SDS011;46541;49.894;10.886;2024-01-15T01:40:40;57.95;;;21.00;;
60700;SDS011;46541;49.894;10.886;2024-01-15T01:43:08;51.08;;;19.60;;
60700;SDS011;46541;49.894;10.886;2024-01-15T01:45:35;56.78;;;20.60;;
60700;SDS011;46541;49.894;10.886;2024-01-15T01:48:02;51.72;;;19.42;;
60700;SDS011;46541;49.894;10.886;2024-01-15T01:50:31;58.90;;;20.80;;
60700;SDS011;46541;49.894;10.886;2024-01-15T01:52:58;47.58;;;19.33;;
60700;SDS011;46541;49.894;10.886;2024-01-15T01:55:26;54.40;;;20.02;;
60700;SDS011;46541;49.894;10.886;2024-01-15T01:57:55;54.30;;;20.67;;
60700;SDS011;46541;49.894;10.886;2024-01-15T02:00:23;53.85;;;19.90;;
60700;SDS011;46541;49.894;10.886;2024-01-15T02:02:50;61.65;;;20.38;;
60700;SDS011;46541;49.894;10.886;2024-01-15T02:05:18;58.92;;;21.92;;
60700;SDS011;46541;49.894;10.886;2024-01-15T02:07:46;50.65;;;20.33;;
60700;SDS011;46541;49.894;10.886;2024-01-15T02:10:13;56.00;;;20.90;;
60700;SDS011;46541;49.894;10.886;2024-01-15T02:12:40;51.13;;;19.33;;
60700;SDS011;46541;49.894;10.886;2024-01-15T02:15:09;51.40;;;18.67;;
60700;SDS011;46541;49.894;10.886;2024-01-15T02:17:54;48.63;;;17.90;;
60700;SDS011;46541;49.894;10.886;2024-01-15T02:20:26;53.10;;;19.85;;
60700;SDS011;46541;49.894;10.886;2024-01-15T02:22:53;46.70;;;17.33;;
60700;SDS011;46541;49.894;10.886;2024-01-15T02:25:20;49.80;;;19.75;;
60700;SDS011;46541;49.894;10.886;2024-01-15T02:27:47;52.13;;;20.00;;
60700;SDS011;46541;49.894;10.886;2024-01-15T02:30:14;53.30;;;19.45;;
60700;SDS011;46541;49.894;10.886;2024-01-15T02:32:43;47.05;;;16.83;;
60700;SDS011;46541;49.894;10.886;2024-01-15T02:35:09;43.90;;;18.05;;
60700;SDS011;46541;49.894;10.886;2024-01-15T02:37:36;53.10;;;20.40;;
60700;SDS011;46541;49.894;10.886;2024-01-15T02:40:03;48.22;;;18.35;;
60700;SDS011;46541;49.894;10.886;2024-01-15T02:42:30;45.92;;;17.30;;
60700;SDS011;46541;49.894;10.886;2024-01-15T02:44:57;48.60;;;18.05;;
60700;SDS011;46541;49.894;10.886;2024-01-15T02:47:23;47.80;;;18.70;;
60700;SDS011;46541;49.894;10.886;2024-01-15T02:49:50;42.35;;;18.80;;
60700;SDS011;46541;49.894;10.886;2024-01-15T02:52:17;47.17;;;18.80;;
60700;SDS011;46541;49.894;10.886;2024-01-15T02:54:44;42.83;;;16.67;;
60700;SDS011;46541;49.894;10.886;2024-01-15T02:57:11;44.45;;;17.23;;
60700;SDS011;46541;49.894;10.886;2024-01-15T02:59:38;43.20;;;17.27;;
60700;SDS011;46541;49.894;10.886;2024-01-15T03:02:05;41.83;;;17.08;;
60700;SDS011;46541;49.894;10.886;2024-01-15T03:04:31;44.85;;;17.35;;
60700;SDS011;46541;49.894;10.886;2024-01-15T03:06:58;41.30;;;16.63;;
60700;SDS011;46541;49.894;10.886;2024-01-15T03:09:25;42.35;;;17.13;;
60700;SDS011;46541;49.894;10.886;2024-01-15T03:11:52;45.22;;;17.73;;
60700;SDS011;46541;49.894;10.886;2024-01-15T03:14:19;45.33;;;16.52;;
60700;SDS011;46541;49.894;10.886;2024-01-15T03:16:46;42.67;;;16.33;;
60700;SDS011;46541;49.894;10.886;2024-01-15T03:19:13;42.42;;;16.08;;
60700;SDS011;46541;49.894;10.886;2024-01-15T03:21:40;43.78;;;16.42;;
60700;SDS011;46541;49.894;10.886;2024-01-15T03:24:06;40.75;;;16.08;;
60700;SDS011;46541;49.894;10.886;2024-01-15T03:26:33;45.03;;;16.85;;
60700;SDS011;46541;49.894;10.886;2024-01-15T03:29:00;43.22;;;15.63;;
60700;SDS011;46541;49.894;10.886;2024-01-15T03:31:27;36.65;;;15.35;;
60700;SDS011;46541;49.894;10.886;2024-01-15T03:33:54;44.55;;;17.00;;
60700;SDS011;46541;49.894;10.886;2024-01-15T03:36:21;38.55;;;15.95;;
60700;SDS011;46541;49.894;10.886;2024-01-15T03:38:47;32.83;;;14.05;;
60700;SDS011;46541;49.894;10.886;2024-01-15T03:41:14;36.28;;;12.63;;
60700;SDS011;46541;49.894;10.886;2024-01-15T03:43:41;36.72;;;14.85;;
60700;SDS011;46541;49.894;10.886;2024-01-15T03:46:07;41.40;;;16.40;;
60700;SDS011;46541;49.894;10.886;2024-01-15T03:48:34;27.88;;;11.40;;
60700;SDS011;46541;49.894;10.886;2024-01-15T03:51:01;36.00;;;14.45;;
60700;SDS011;46541;49.894;10.886;2024-01-15T03:53:28;36.80;;;14.18;;
60700;SDS011;46541;49.894;10.886;2024-01-15T03:55:55;42.90;;;16.38;;
60700;SDS011;46541;49.894;10.886;2024-01-15T03:58:22;42.10;;;15.57;;
60700;SDS011;46541;49.894;10.886;2024-01-15T04:00:48;36.13;;;14.50;;
60700;SDS011;46541;49.894;10.886;2024-01-15T04:03:15;39.60;;;14.77;;
60700;SDS011;46541;49.894;10.886;2024-01-15T04:05:43;37.08;;;14.77;;
60700;SDS011;46541;49.894;10.886;2024-01-15T04:08:10;37.78;;;15.73;;
60700;SDS011;46541;49.894;10.886;2024-01-15T04:10:36;37.92;;;14.77;;
60700;SDS011;46541;49.894;10.886;2024-01-15T04:13:03;35.58;;;15.00;;
60700;SDS011;46541;49.894;10.886;2024-01-15T04:15:30;30.55;;;13.50;;
60700;SDS011;46541;49.894;10.886;2024-01-15T04:17:57;34.75;;;14.65;;
60700;SDS011;46541;49.894;10.886;2024-01-15T04:20:23;34.05;;;14.88;;
60700;SDS011;46541;49.894;10.886;2024-01-15T04:22:51;28.73;;;11.07;;
60700;SDS011;46541;49.894;10.886;2024-01-15T04:25:18;33.88;;;15.45;;
60700;SDS011;46541;49.894;10.886;2024-01-15T04:27:45;35.00;;;14.27;;
60700;SDS011;46541;49.894;10.886;2024-01-15T04:30:12;36.35;;;14.57;;
60700;SDS011;46541;49.894;10.886;2024-01-15T04:32:40;40.28;;;13.82;;
60700;SDS011;46541;49.894;10.886;2024-01-15T04:35:06;38.78;;;15.43;;
60700;SDS011;46541;49.894;10.886;2024-01-15T04:37:33;31.95;;;13.07;;
60700;SDS011;46541;49.894;10.886;2024-01-15T04:40:00;34.13;;;14.00;;
60700;SDS011;46541;49.894;10.886;2024-01-15T04:42:30;40.90;;;15.35;;
60700;SDS011;46541;49.894;10.886;2024-01-15T04:44:57;39.13;;;15.25;;
60700;SDS011;46541;49.894;10.886;2024-01-15T04:47:24;34.45;;;13.00;;
60700;SDS011;46541;49.894;10.886;2024-01-15T04:49:51;37.70;;;14.23;;
60700;SDS011;46541;49.894;10.886;2024-01-15T04:52:18;35.65;;;14.45;;
60700;SDS011;46541;49.894;10.886;2024-01-15T04:54:45;39.15;;;16.13;;
60700;SDS011;46541;49.894;10.886;2024-01-15T04:57:12;35.15;;;13.60;;
60700;SDS011;46541;49.894;10.886;2024-01-15T04:59:39;38.80;;;16.27;;
60700;SDS011;46541;49.894;10.886;2024-01-15T05:02:06;38.58;;;15.98;;
60700;SDS011;46541;49.894;10.886;2024-01-15T05:04:32;36.95;;;15.10;;
60700;SDS011;46541;49.894;10.886;2024-01-15T05:06:59;34.92;;;14.70;;
60700;SDS011;46541;49.894;10.886;2024-01-15T05:09:26;34.90;;;14.23;;
60700;SDS011;46541;49.894;10.886;2024-01-15T05:11:56;37.08;;;15.70;;
60700;SDS011;46541;49.894;10.886;2024-01-15T05:14:23;32.83;;;14.63;;
60700;SDS011;46541;49.894;10.886;2024-01-15T05:16:50;37.00;;;13.55;;
60700;SDS011;46541;49.894;10.886;2024-01-15T05:19:17;34.00;;;14.13;;
60700;SDS011;46541;49.894;10.886;2024-01-15T05:21:44;35.97;;;14.30;;
60700;SDS011;46541;49.894;10.886;2024-01-15T05:24:11;36.85;;;14.25;;
60700;SDS011;46541;49.894;10.886;2024-01-15T05:26:38;37.08;;;14.45;;
60700;SDS011;46541;49.894;10.886;2024-01-15T05:29:05;38.13;;;14.40;;
60700;SDS011;46541;49.894;10.886;2024-01-15T05:31:32;36.70;;;15.07;;
60700;SDS011;46541;49.894;10.886;2024-01-15T05:33:59;33.17;;;13.23;;
60700;SDS011;46541;49.894;10.886;2024-01-15T05:36:26;38.97;;;15.10;;
60700;SDS011;46541;49.894;10.886;2024-01-15T05:38:53;33.22;;;14.27;;
60700;SDS011;46541;49.894;10.886;2024-01-15T05:41:19;34.20;;;14.45;;
60700;SDS011;46541;49.894;10.886;2024-01-15T05:43:46;40.90;;;15.30;;
60700;SDS011;46541;49.894;10.886;2024-01-15T05:46:13;32.75;;;13.68;;
60700;SDS011;46541;49.894;10.886;2024-01-15T05:48:41;32.65;;;13.45;;
60700;SDS011;46541;49.894;10.886;2024-01-15T05:51:08;33.72;;;13.82;;
60700;SDS011;46541;49.894;10.886;2024-01-15T05:53:36;38.20;;;15.38;;
60700;SDS011;46541;49.894;10.886;2024-01-15T05:56:06;27.80;;;12.95;;
60700;SDS011;46541;49.894;10.886;2024-01-15T05:58:33;34.13;;;13.77;;
60700;SDS011;46541;49.894;10.886;2024-01-15T06:00:59;31.55;;;13.68;;
60700;SDS011;46541;49.894;10.886;2024-01-15T06:03:26;35.00;;;15.15;;
60700;SDS011;46541;49.894;10.886;2024-01-15T06:05:53;36.30;;;14.60;;
60700;SDS011;46541;49.894;10.886;2024-01-15T06:08:20;33.80;;;15.02;;
60700;SDS011;46541;49.894;10.886;2024-01-15T06:10:47;34.45;;;14.00;;
60700;SDS011;46541;49.894;10.886;2024-01-15T06:13:14;37.03;;;14.57;;
60700;SDS011;46541;49.894;10.886;2024-01-15T06:15:40;38.90;;;14.93;;
60700;SDS011;46541;49.894;10.886;2024-01-15T06:18:07;36.40;;;14.38;;
60700;SDS011;46541;49.894;10.886;2024-01-15T06:20:35;33.22;;;11.57;;
60700;SDS011;46541;49.894;10.886;2024-01-15T06:23:01;34.33;;;13.98;;
60700;SDS011;46541;49.894;10.886;2024-01-15T06:25:28;33.95;;;14.88;;
60700;SDS011;46541;49.894;10.886;2024-01-15T06:27:55;38.13;;;15.45;;
60700;SDS011;46541;49.894;10.886;2024-01-15T06:30:22;34.28;;;14.65;;
60700;SDS011;46541;49.894;10.886;2024-01-15T06:32:49;39.20;;;15.05;;
60700;SDS011;46541;49.894;10.886;2024-01-15T06:35:16;43.80;;;16.02;;
60700;SDS011;46541;49.894;10.886;2024-01-15T06:37:47;39.10;;;15.02;;
60700;SDS011;46541;49.894;10.886;2024-01-15T06:40:14;36.00;;;15.30;;
60700;SDS011;46541;49.894;10.886;2024-01-15T06:42:41;41.97;;;16.00;;
60700;SDS011;46541;49.894;10.886;2024-01-15T06:45:08;36.78;;;13.93;;
60700;SDS011;46541;49.894;10.886;2024-01-15T06:47:35;38.30;;;14.43;;
60700;SDS011;46541;49.894;10.886;2024-01-15T06:50:02;32.20;;;13.98;;
60700;SDS011;46541;49.894;10.886;2024-01-15T06:52:29;34.20;;;15.95;;
60700;SDS011;46541;49.894;10.886;2024-01-15T06:54:56;32.97;;;14.20;;
60700;SDS011;46541;49.894;10.886;2024-01-15T06:57:22;35.72;;;13.50;;
60700;SDS011;46541;49.894;10.886;2024-01-15T06:59:49;37.88;;;15.18;;
60700;SDS011;46541;49.894;10.886;2024-01-15T07:02:16;36.85;;;15.13;;
60700;SDS011;46541;49.894;10.886;2024-01-15T07:04:42;35.05;;;15.38;;
60700;SDS011;46541;49.894;10.886;2024-01-15T07:07:09;31.48;;;13.70;;
60700;SDS011;46541;49.894;10.886;2024-01-15T07:09:36;34.38;;;13.93;;
60700;SDS011;46541;49.894;10.886;2024-01-15T07:12:03;33.65;;;14.20;;
60700;SDS011;46541;49.894;10.886;2024-01-15T07:14:30;31.45;;;12.57;;
60700;SDS011;46541;49.894;10.886;2024-01-15T07:16:56;34.78;;;13.82;;
60700;SDS011;46541;49.894;10.886;2024-01-15T07:19:23;31.48;;;14.77;;
60700;SDS011;46541;49.894;10.886;2024-01-15T07:21:51;29.95;;;14.35;;
60700;SDS011;46541;49.894;10.886;2024-01-15T07:24:22;33.90;;;14.43;;
60700;SDS011;46541;49.894;10.886;2024-01-15T07:26:49;26.50;;;13.07;;
60700;SDS011;46541;49.894;10.886;2024-01-15T07:29:15;32.83;;;15.00;;
60700;SDS011;46541;49.894;10.886;2024-01-15T07:31:47;29.65;;;11.52;;
60700;SDS011;46541;49.894;10.886;2024-01-15T07:34:17;31.23;;;14.57;;
60700;SDS011;46541;49.894;10.886;2024-01-15T07:36:44;33.75;;;14.05;;
60700;SDS011;46541;49.894;10.886;2024-01-15T07:39:11;33.83;;;14.07;;
60700;SDS011;46541;49.894;10.886;2024-01-15T07:41:38;34.80;;;15.57;;
60700;SDS011;46541;49.894;10.886;2024-01-15T07:44:05;34.28;;;14.80;;
60700;SDS011;46541;49.894;10.886;2024-01-15T07:46:32;35.83;;;15.15;;
60700;SDS011;46541;49.894;10.886;2024-01-15T07:48:59;30.65;;;13.38;;
60700;SDS011;46541;49.894;10.886;2024-01-15T07:51:26;31.15;;;13.85;;
60700;SDS011;46541;49.894;10.886;2024-01-15T07:53:53;36.58;;;16.10;;
60700;SDS011;46541;49.894;10.886;2024-01-15T07:56:21;32.67;;;14.23;;
60700;SDS011;46541;49.894;10.886;2024-01-15T07:58:48;47.00;;;16.25;;
60700;SDS011;46541;49.894;10.886;2024-01-15T08:01:14;34.20;;;15.07;;
60700;SDS011;46541;49.894;10.886;2024-01-15T08:03:42;35.90;;;15.18;;
60700;SDS011;46541;49.894;10.886;2024-01-15T08:06:09;29.90;;;14.30;;
60700;SDS011;46541;49.894;10.886;2024-01-15T08:08:36;32.67;;;14.70;;
60700;SDS011;46541;49.894;10.886;2024-01-15T08:11:04;33.85;;;18.20;;
60700;SDS011;46541;49.894;10.886;2024-01-15T08:13:31;37.05;;;15.93;;
60700;SDS011;46541;49.894;10.886;2024-01-15T08:15:58;37.30;;;17.50;;
60700;SDS011;46541;49.894;10.886;2024-01-15T08:18:25;34.53;;;16.25;;
60700;SDS011;46541;49.894;10.886;2024-01-15T08:20:52;39.53;;;17.80;;
60700;SDS011;46541;49.894;10.886;2024-01-15T08:23:20;39.72;;;18.08;;
60700;SDS011;46541;49.894;10.886;2024-01-15T08:25:47;48.72;;;21.75;;
60700;SDS011;46541;49.894;10.886;2024-01-15T08:28:14;35.83;;;14.93;;
60700;SDS011;46541;49.894;10.886;2024-01-15T08:30:41;33.90;;;14.75;;
60700;SDS011;46541;49.894;10.886;2024-01-15T08:33:07;40.30;;;18.55;;
60700;SDS011;46541;49.894;10.886;2024-01-15T08:35:46;27.58;;;12.77;;
60700;SDS011;46541;49.894;10.886;2024-01-15T08:38:13;34.38;;;19.52;;
60700;SDS011;46541;49.894;10.886;2024-01-15T08:40:40;30.33;;;13.68;;
60700;SDS011;46541;49.894;10.886;2024-01-15T08:43:06;32.15;;;13.57;;
60700;SDS011;46541;49.894;10.886;2024-01-15T08:45:33;29.80;;;14.73;;
60700;SDS011;46541;49.894;10.886;2024-01-15T08:48:00;36.05;;;15.05;;
60700;SDS011;46541;49.894;10.886;2024-01-15T08:50:27;33.55;;;15.02;;
60700;SDS011;46541;49.894;10.886;2024-01-15T08:52:55;30.70;;;14.52;;
60700;SDS011;46541;49.894;10.886;2024-01-15T08:55:22;32.78;;;14.90;;
60700;SDS011;46541;49.894;10.886;2024-01-15T08:57:49;34.65;;;15.80;;
60700;SDS011;46541;49.894;10.886;2024-01-15T09:00:16;31.73;;;15.77;;
60700;SDS011;46541;49.894;10.886;2024-01-15T09:02:43;30.65;;;14.68;;
60700;SDS011;46541;49.894;10.886;2024-01-15T09:05:10;30.40;;;14.20;;
60700;SDS011;46541;49.894;10.886;2024-01-15T09:07:37;28.60;;;12.80;;
60700;SDS011;46541;49.894;10.886;2024-01-15T09:10:04;31.98;;;14.40;;
60700;SDS011;46541;49.894;10.886;2024-01-15T09:12:31;29.73;;;14.38;;
60700;SDS011;46541;49.894;10.886;2024-01-15T09:14:57;29.95;;;13.40;;
60700;SDS011;46541;49.894;10.886;2024-01-15T09:17:24;28.95;;;13.32;;
60700;SDS011;46541;49.894;10.886;2024-01-15T09:19:51;35.22;;;15.48;;
60700;SDS011;46541;49.894;10.886;2024-01-15T09:22:18;28.42;;;12.73;;
60700;SDS011;46541;49.894;10.886;2024-01-15T09:24:45;30.00;;;14.20;;
60700;SDS011;46541;49.894;10.886;2024-01-15T09:27:12;38.70;;;16.52;;
60700;SDS011;46541;49.894;10.886;2024-01-15T09:29:39;31.00;;;13.40;;
60700;SDS011;46541;49.894;10.886;2024-01-15T09:32:08;28.25;;;12.40;;
60700;SDS011;46541;49.894;10.886;2024-01-15T09:34:35;31.13;;;12.73;;
60700;SDS011;46541;49.894;10.886;2024-01-15T09:37:02;29.55;;;13.40;;
60700;SDS011;46541;49.894;10.886;2024-01-15T09:39:30;31.02;;;14.57;;
60700;SDS011;46541;49.894;10.886;2024-01-15T09:41:57;37.72;;;17.60;;
60700;SDS011;46541;49.894;10.886;2024-01-15T09:44:25;32.70;;;16.17;;
60700;SDS011;46541;49.894;10.886;2024-01-15T09:46:53;26.15;;;13.35;;
60700;SDS011;46541;49.894;10.886;2024-01-15T09:49:21;25.60;;;12.77;;
60700;SDS011;46541;49.894;10.886;2024-01-15T09:51:48;28.85;;;12.57;;
60700;SDS011;46541;49.894;10.886;2024-01-15T09:54:28;32.72;;;13.77;;
60700;SDS011;46541;49.894;10.886;2024-01-15T09:56:55;24.77;;;11.73;;
60700;SDS011;46541;49.894;10.886;2024-01-15T09:59:22;28.00;;;12.98;;
60700;SDS011;46541;49.894;10.886;2024-01-15T10:01:57;29.23;;;12.02;;
60700;SDS011;46541;49.894;10.886;2024-01-15T10:04:25;25.05;;;11.55;;
60700;SDS011;46541;49.894;10.886;2024-01-15T10:06:52;29.30;;;13.80;;
60700;SDS011;46541;49.894;10.886;2024-01-15T10:09:20;28.05;;;13.68;;
60700;SDS011;46541;49.894;10.886;2024-01-15T10:11:47;29.48;;;12.07;;
60700;SDS011;46541;49.894;10.886;2024-01-15T10:14:14;27.10;;;11.88;;
60700;SDS011;46541;49.894;10.886;2024-01-15T10:16:41;27.40;;;12.18;;
60700;SDS011;46541;49.894;10.886;2024-01-15T10:19:08;27.40;;;12.00;;
60700;SDS011;46541;49.894;10.886;2024-01-15T10:21:36;22.92;;;10.93;;
60700;SDS011;46541;49.894;10.886;2024-01-15T10:24:03;28.67;;;12.98;;
60700;SDS011;46541;49.894;10.886;2024-01-15T10:26:32;27.88;;;13.02;;
60700;SDS011;46541;49.894;10.886;2024-01-15T10:28:59;29.25;;;12.05;;
60700;SDS011;46541;49.894;10.886;2024-01-15T10:31:27;24.27;;;11.68;;
60700;SDS011;46541;49.894;10.886;2024-01-15T10:34:09;23.77;;;11.52;;
60700;SDS011;46541;49.894;10.886;2024-01-15T10:36:41;22.35;;;11.10;;
60700;SDS011;46541;49.894;10.886;2024-01-15T10:39:13;25.50;;;11.82;;
60700;SDS011;46541;49.894;10.886;2024-01-15T10:41:40;23.52;;;10.13;;
60700;SDS011;46541;49.894;10.886;2024-01-15T10:44:07;24.20;;;10.82;;
60700;SDS011;46541;49.894;10.886;2024-01-15T10:46:34;21.25;;;10.93;;
60700;SDS011;46541;49.894;10.886;2024-01-15T10:49:01;20.73;;;9.70;;
60700;SDS011;46541;49.894;10.886;2024-01-15T10:51:28;23.27;;;11.48;;
60700;SDS011;46541;49.894;10.886;2024-01-15T10:53:56;23.27;;;11.15;;
60700;SDS011;46541;49.894;10.886;2024-01-15T10:56:23;25.48;;;12.15;;
60700;SDS011;46541;49.894;10.886;2024-01-15T10:58:51;18.48;;;10.52;;
60700;SDS011;46541;49.894;10.886;2024-01-15T11:01:24;23.30;;;12.05;;
60700;SDS011;46541;49.894;10.886;2024-01-15T11:03:56;26.92;;;11.63;;
60700;SDS011;46541;49.894;10.886;2024-01-15T11:06:26;23.85;;;10.93;;
60700;SDS011;46541;49.894;10.886;2024-01-15T11:08:55;26.70;;;12.43;;
60700;SDS011;46541;49.894;10.886;2024-01-15T11:11:22;23.52;;;11.75;;
60700;SDS011;46541;49.894;10.886;2024-01-15T11:13:49;23.80;;;12.27;;
60700;SDS011;46541;49.894;10.886;2024-01-15T11:16:18;25.20;;;12.38;;
60700;SDS011;46541;49.894;10.886;2024-01-15T11:21:24;25.17;;;11.45;;
60700;SDS011;46541;49.894;10.886;2024-01-15T11:23:57;24.25;;;11.98;;
60700;SDS011;46541;49.894;10.886;2024-01-15T11:26:28;25.50;;;12.05;;
60700;SDS011;46541;49.894;10.886;2024-01-15T11:29:08;29.52;;;12.30;;
60700;SDS011;46541;49.894;10.886;2024-01-15T11:40:17;25.13;;;11.55;;
60700;SDS011;46541;49.894;10.886;2024-01-15T11:42:45;22.63;;;10.82;;
60700;SDS011;46541;49.894;10.886;2024-01-15T11:45:19;21.75;;;11.27;;
60700;SDS011;46541;49.894;10.886;2024-01-15T11:50:17;21.98;;;10.43;;
60700;SDS011;46541;49.894;10.886;2024-01-15T11:52:46;21.63;;;10.68;;
60700;SDS011;46541;49.894;10.886;2024-01-15T11:55:38;23.27;;;10.32;;
60700;SDS011;46541;49.894;10.886;2024-01-15T11:58:10;20.63;;;10.88;;
60700;SDS011;46541;49.894;10.886;2024-01-15T12:00:42;21.65;;;11.23;;
60700;SDS011;46541;49.894;10.886;2024-01-15T12:03:11;17.48;;;9.65;;
60700;SDS011;46541;49.894;10.886;2024-01-15T12:05:38;22.30;;;10.13;;
60700;SDS011;46541;49.894;10.886;2024-01-15T12:08:06;24.17;;;10.68;;
60700;SDS011;46541;49.894;10.886;2024-01-15T12:10:37;26.02;;;12.07;;
60700;SDS011;46541;49.894;10.886;2024-01-15T12:13:05;146.75;;;51.33;;
60700;SDS011;46541;49.894;10.886;2024-01-15T12:15:39;33.55;;;12.98;;
60700;SDS011;46541;49.894;10.886;2024-01-15T12:18:11;27.75;;;12.18;;
60700;SDS011;46541;49.894;10.886;2024-01-15T12:20:42;26.80;;;12.60;;
60700;SDS011;46541;49.894;10.886;2024-01-15T12:23:13;25.73;;;12.90;;
60700;SDS011;46541;49.894;10.886;2024-01-15T12:25:40;40.97;;;16.55;;
60700;SDS011;46541;49.894;10.886;2024-01-15T12:28:07;33.85;;;15.95;;
60700;SDS011;46541;49.894;10.886;2024-01-15T12:30:35;21.67;;;11.05;;
60700;SDS011;46541;49.894;10.886;2024-01-15T12:33:03;19.77;;;9.70;;
60700;SDS011;46541;49.894;10.886;2024-01-15T12:35:31;21.70;;;10.45;;
60700;SDS011;46541;49.894;10.886;2024-01-15T12:37:59;23.10;;;11.05;;
60700;SDS011;46541;49.894;10.886;2024-01-15T12:40:29;20.63;;;10.82;;
60700;SDS011;46541;49.894;10.886;2024-01-15T12:42:58;21.83;;;10.48;;
60700;SDS011;46541;49.894;10.886;2024-01-15T12:45:25;22.33;;;11.05;;
60700;SDS011;46541;49.894;10.886;2024-01-15T12:47:52;21.23;;;9.75;;
60700;SDS011;46541;49.894;10.886;2024-01-15T12:50:19;19.83;;;10.77;;
60700;SDS011;46541;49.894;10.886;2024-01-15T12:52:49;17.63;;;8.95;;
60700;SDS011;46541;49.894;10.886;2024-01-15T12:55:16;19.95;;;9.07;;
60700;SDS011;46541;49.894;10.886;2024-01-15T12:57:43;18.75;;;9.38;;
60700;SDS011;46541;49.894;10.886;2024-01-15T13:00:12;20.75;;;10.68;;
60700;SDS011;46541;49.894;10.886;2024-01-15T13:02:41;19.95;;;10.00;;
60700;SDS011;46541;49.894;10.886;2024-01-15T13:05:10;18.58;;;9.25;;
60700;SDS011;46541;49.894;10.886;2024-01-15T13:07:39;18.80;;;9.68;;
60700;SDS011;46541;49.894;10.886;2024-01-15T13:10:06;17.85;;;9.18;;
60700;SDS011;46541;49.894;10.886;2024-01-15T13:12:37;17.85;;;9.00;;
60700;SDS011;46541;49.894;10.886;2024-01-15T13:15:04;19.50;;;9.38;;
60700;SDS011;46541;49.894;10.886;2024-01-15T13:17:32;22.02;;;10.75;;
60700;SDS011;46541;49.894;10.886;2024-01-15T13:19:59;14.65;;;8.18;;
60700;SDS011;46541;49.894;10.886;2024-01-15T13:22:27;16.27;;;8.35;;
60700;SDS011;46541;49.894;10.886;2024-01-15T13:24:59;17.65;;;9.10;;
60700;SDS011;46541;49.894;10.886;2024-01-15T13:27:26;16.63;;;8.40;;
60700;SDS011;46541;49.894;10.886;2024-01-15T13:29:54;16.95;;;9.05;;
60700;SDS011;46541;49.894;10.886;2024-01-15T13:32:25;15.13;;;8.05;;
60700;SDS011;46541;49.894;10.886;2024-01-15T13:34:55;19.92;;;9.18;;
60700;SDS011;46541;49.894;10.886;2024-01-15T13:37:23;12.82;;;7.57;;
60700;SDS011;46541;49.894;10.886;2024-01-15T13:39:53;16.42;;;8.32;;
60700;SDS011;46541;49.894;10.886;2024-01-15T13:42:20;15.00;;;8.15;;
60700;SDS011;46541;49.894;10.886;2024-01-15T13:44:50;15.48;;;7.78;;
60700;SDS011;46541;49.894;10.886;2024-01-15T13:47:17;15.52;;;8.25;;
60700;SDS011;46541;49.894;10.886;2024-01-15T13:49:44;15.90;;;7.97;;
60700;SDS011;46541;49.894;10.886;2024-01-15T13:52:11;12.30;;;6.35;;
60700;SDS011;46541;49.894;10.886;2024-01-15T13:54:38;22.13;;;10.70;;
60700;SDS011;46541;49.894;10.886;2024-01-15T13:57:16;12.85;;;7.43;;
60700;SDS011;46541;49.894;10.886;2024-01-15T13:59:44;15.27;;;8.02;;
60700;SDS011;46541;49.894;10.886;2024-01-15T14:02:12;13.00;;;7.63;;
60700;SDS011;46541;49.894;10.886;2024-01-15T14:04:42;16.02;;;7.97;;
60700;SDS011;46541;49.894;10.886;2024-01-15T14:07:09;14.05;;;7.00;;
60700;SDS011;46541;49.894;10.886;2024-01-15T14:09:36;20.25;;;10.65;;
60700;SDS011;46541;49.894;10.886;2024-01-15T14:12:04;15.27;;;8.25;;
60700;SDS011;46541;49.894;10.886;2024-01-15T14:14:32;16.65;;;8.52;;
60700;SDS011;46541;49.894;10.886;2024-01-15T14:16:59;20.98;;;9.95;;
60700;SDS011;46541;49.894;10.886;2024-01-15T14:19:26;19.10;;;9.48;;
60700;SDS011;46541;49.894;10.886;2024-01-15T14:21:53;15.98;;;7.30;;
60700;SDS011;46541;49.894;10.886;2024-01-15T14:24:20;13.18;;;7.53;;
60700;SDS011;46541;49.894;10.886;2024-01-15T14:26:46;15.63;;;8.00;;